Hlavní strana
METAR-TAF:

METAR-TAF

Letiště :

Funafuti, Tuvalu

zeměpisná šířka: 08-31S, zeměpisná délka: 179-13E, výška: 1 m

Aktuální stav počasí

Zpráva byla vytvořena před 22 minutami, v 00:00 UTC
Východní vítr 13 kt
Teplota 32°C
Vlhkost vzduchu 71%
Tlak 1008 hPa
Viditelnost 10 km a více
Skoro jasno ve výšce 2000 ft

METAR: NGFU 180000Z 09013KT 9999 FEW020 32/26 Q1008

Čas: 12:22 (00:22 UTC)

Předpověď počasí

Zpráva byla vytvořena před 1 hodinou a 2 minutami, v 23:20 UTC
Předpověď platná od 18 v 00 UTC do 18 v 24 UTC
Východní vítr 12 kt
Viditelnost 10 km a více
Polojasno ve výšce 2000 ft
Polojasno ve výšce 4500 ft

TAF: NGFU 172320Z 1800/1824 10012KT 9999 SCT020 SCT045

Stav a předpovědi počasí z více než 4 000 letišť (zprávy METAR a TAF).

Červené a žluté tečky na mapě představují dostupné meteorologické stanice.

Když kurzor umístíte na tečku, zobrazí se název stanice.

Pak kliknutím zobrazíte stav a předpověď počasí.

Chcete-li změnit mapu, kliknutím na zelené tlačítko se znaménkem +mapu přiblížíte, kliknutím na zelené tlačítko se znaménkem – mapu oddálíte a kliknutím na zelené šipky přejdete na sousední mapy.


METAR-TAF: